Meteo Giornale » Osservazioni meteo Stati Uniti (USA) » Lewiston-Nez Perce
ore: 09:56 - Osservazioni Meteo Lewiston-Nez Perce
Lat. 46° 22' N Lon. 117° 0' W Alt. 438 metri s.l.m.
19 °C
Poco Nuvoloso
Temp. 24 Ore
16 °C
32 °C
Ovest
7.4 Km/h
Dew point 6 °C
Umidità 42 %
Visibilità 10 Km
Il sole sorge alle ore 06:08
Il sole tramonta alle ore 19:27
| Data e Ora | Cielo e Fenomeni | T °C | DP °C | Um. % | Pres. hPa | Vis. km | Vento km/h | |
|---|---|---|---|---|---|---|---|---|
| Oggi h: 09:56 | Poco Nuvoloso | 19 | 6 | 42 | 1007 | 10 | O 7.4 | |
| Oggi h: 08:56 | Sereno | 18 | 6 | 45 | 1007 | 10 | N 5.5 | |
| Oggi h: 07:56 | Sereno | 16 | 5 | 47 | 1007 | 10 | N 0 | |
| Oggi h: 06:56 | Sereno | 16 | 4 | 44 | 1007 | 10 | N 0 | |
| Oggi h: 05:56 | Sereno | 16 | 5 | 47 | 1007 | 10 | N 5.5 | |
| Oggi h: 04:56 | Sereno | 17 | 4 | 41 | 1007 | 10 | E 11.1 | |
| Oggi h: 03:56 | Sereno | 17 | 4 | 41 | 1007 | 10 | N 0 | |
| Oggi h: 02:56 | Sereno | 17 | 2 | 36 | 1007 | 10 | S/SE 7.4 | |
| Oggi h: 01:56 | Sereno | 18 | 1 | 31 | 1007 | 10 | E/SE 7.4 | |
| Oggi h: 00:56 | Sereno | 19 | 1 | 29 | 1007 | 10 | N 5.5 | |
| Ieri h: 23:56 | Sereno | 19 | 0 | 27 | 1007 | 10 | SE 7.4 | |
| Ieri h: 22:56 | Sereno | 21 | 1 | 26 | 1007 | 10 | N 0 | |
| Ieri h: 21:56 | Sereno | 22 | -1 | 21 | 1008 | 10 | SE 11.1 | |
| Ieri h: 20:56 | Sereno | 24 | -1 | 19 | 1008 | 10 | S/SE 13 | |
| Ieri h: 19:56 | Sereno | 28 | 1 | 17 | 1007 | 10 | N 0 | |
| Ieri h: 18:56 | Sereno | 29 | 0 | 15 | 1007 | 10 | N 5.5 | |
| Ieri h: 17:56 | Sereno | 31 | 1 | 14 | 1008 | 10 | E 9.3 | |
| Ieri h: 16:56 | Sereno | 32 | 1 | 13 | 1008 | 10 | E 11.1 | |
| Ieri h: 15:56 | Sereno | 32 | 0 | 12 | 1009 | 10 | N 7.4 | |
| Ieri h: 14:56 | Sereno | 30 | 1 | 15 | 1010 | 10 | E/NE 9.3 | |
| Ieri h: 13:56 | Sereno | 28 | 2 | 18 | 1011 | 10 | N 5.5 | |
| Ieri h: 12:56 | Sereno | 26 | 3 | 22 | 1012 | 10 | N 0 | |
| Ieri h: 11:56 | Sereno | 24 | 3 | 25 | 1013 | 10 | N/NE 7.4 | |
| Ieri h: 10:56 | Sereno | 21 | 3 | 30 | 1014 | 10 | NE 11.1 | |



